sensor_id;sensor_type;location;lat;lon;timestamp;pressure;altitude;pressure_sealevel;temperature;humidity
54038;BME280;39954;48.844;9.726;2023-03-24T00:00:57;95274.13;;;11.27;100.00
54038;BME280;39954;48.844;9.726;2023-03-24T00:02:03;95277.09;;;11.33;100.00
54038;BME280;39954;48.844;9.726;2023-03-24T00:03:05;95287.28;;;11.36;100.00
54038;BME280;39954;48.844;9.726;2023-03-24T00:04:14;95284.59;;;11.38;100.00
54038;BME280;39954;48.844;9.726;2023-03-24T00:05:19;95287.28;;;11.36;100.00
54038;BME280;39954;48.844;9.726;2023-03-24T00:06:24;95293.22;;;11.38;100.00
54038;BME280;39954;48.844;9.726;2023-03-24T00:07:27;95296.09;;;11.47;100.00
54038;BME280;39954;48.844;9.726;2023-03-24T00:08:36;95285.56;;;11.48;100.00
54038;BME280;39954;48.844;9.726;2023-03-24T00:09:39;95290.56;;;11.51;100.00
54038;BME280;39954;48.844;9.726;2023-03-24T00:10:44;95295.19;;;11.59;100.00
54038;BME280;39954;48.844;9.726;2023-03-24T00:11:48;95291.94;;;11.68;100.00
54038;BME280;39954;48.844;9.726;2023-03-24T00:12:53;95294.03;;;11.63;100.00
54038;BME280;39954;48.844;9.726;2023-03-24T00:13:55;95290.22;;;11.56;100.00
54038;BME280;39954;48.844;9.726;2023-03-24T00:15:00;95294.69;;;11.54;100.00
54038;BME280;39954;48.844;9.726;2023-03-24T00:16:05;95291.50;;;11.50;100.00
54038;BME280;39954;48.844;9.726;2023-03-24T00:17:10;95292.31;;;11.51;100.00
54038;BME280;39954;48.844;9.726;2023-03-24T00:18:14;95290.66;;;11.50;100.00
54038;BME280;39954;48.844;9.726;2023-03-24T00:19:21;95294.50;;;11.57;100.00
54038;BME280;39954;48.844;9.726;2023-03-24T00:20:24;95296.25;;;11.56;100.00
54038;BME280;39954;48.844;9.726;2023-03-24T00:21:29;95288.22;;;11.59;100.00
54038;BME280;39954;48.844;9.726;2023-03-24T00:22:33;95287.06;;;11.63;100.00
54038;BME280;39954;48.844;9.726;2023-03-24T00:23:38;95284.69;;;11.60;100.00
54038;BME280;39954;48.844;9.726;2023-03-24T00:24:43;95293.22;;;11.62;100.00
54038;BME280;39954;48.844;9.726;2023-03-24T00:25:58;95292.16;;;11.65;100.00
54038;BME280;39954;48.844;9.726;2023-03-24T00:27:03;95298.19;;;11.65;100.00
54038;BME280;39954;48.844;9.726;2023-03-24T00:28:08;95289.88;;;11.60;100.00
54038;BME280;39954;48.844;9.726;2023-03-24T00:29:11;95292.72;;;11.57;100.00
54038;BME280;39954;48.844;9.726;2023-03-24T00:30:18;95288.66;;;11.53;100.00
54038;BME280;39954;48.844;9.726;2023-03-24T00:31:20;95277.66;;;11.50;100.00
54038;BME280;39954;48.844;9.726;2023-03-24T00:32:26;95282.03;;;11.49;100.00
54038;BME280;39954;48.844;9.726;2023-03-24T00:33:31;95281.94;;;11.62;100.00
54038;BME280;39954;48.844;9.726;2023-03-24T00:34:39;95286.47;;;11.60;100.00
54038;BME280;39954;48.844;9.726;2023-03-24T00:35:41;95272.94;;;11.55;100.00
54038;BME280;39954;48.844;9.726;2023-03-24T00:36:46;95268.84;;;11.63;100.00
54038;BME280;39954;48.844;9.726;2023-03-24T00:37:49;95272.50;;;11.61;100.00
54038;BME280;39954;48.844;9.726;2023-03-24T00:38:56;95268.75;;;11.65;100.00
54038;BME280;39954;48.844;9.726;2023-03-24T00:39:58;95265.69;;;11.71;100.00
54038;BME280;39954;48.844;9.726;2023-03-24T00:41:05;95266.72;;;11.69;100.00
54038;BME280;39954;48.844;9.726;2023-03-24T00:42:08;95263.97;;;11.59;100.00
54038;BME280;39954;48.844;9.726;2023-03-24T00:43:14;95263.03;;;11.60;100.00
54038;BME280;39954;48.844;9.726;2023-03-24T00:44:17;95254.16;;;11.51;100.00
54038;BME280;39954;48.844;9.726;2023-03-24T00:45:21;95253.75;;;11.45;100.00
54038;BME280;39954;48.844;9.726;2023-03-24T00:46:25;95256.03;;;11.49;100.00
54038;BME280;39954;48.844;9.726;2023-03-24T00:47:34;95248.66;;;11.43;100.00
54038;BME280;39954;48.844;9.726;2023-03-24T00:48:37;95255.84;;;11.39;100.00
54038;BME280;39954;48.844;9.726;2023-03-24T00:49:45;95245.00;;;11.46;100.00
54038;BME280;39954;48.844;9.726;2023-03-24T00:50:48;95239.59;;;11.49;100.00
54038;BME280;39954;48.844;9.726;2023-03-24T00:51:53;95235.81;;;11.53;100.00
54038;BME280;39954;48.844;9.726;2023-03-24T00:52:58;95242.78;;;11.52;100.00
54038;BME280;39954;48.844;9.726;2023-03-24T00:54:04;95235.06;;;11.51;100.00
54038;BME280;39954;48.844;9.726;2023-03-24T00:55:07;95236.03;;;11.50;100.00
54038;BME280;39954;48.844;9.726;2023-03-24T00:56:14;95239.13;;;11.55;100.00
54038;BME280;39954;48.844;9.726;2023-03-24T00:57:17;95234.06;;;11.64;100.00
54038;BME280;39954;48.844;9.726;2023-03-24T00:58:24;95230.41;;;11.67;100.00
54038;BME280;39954;48.844;9.726;2023-03-24T00:59:26;95231.44;;;11.64;100.00
54038;BME280;39954;48.844;9.726;2023-03-24T01:00:31;95230.84;;;11.61;100.00
54038;BME280;39954;48.844;9.726;2023-03-24T01:01:34;95232.25;;;11.54;100.00
54038;BME280;39954;48.844;9.726;2023-03-24T01:02:42;95224.19;;;11.46;100.00
54038;BME280;39954;48.844;9.726;2023-03-24T01:03:47;95225.47;;;11.40;100.00
54038;BME280;39954;48.844;9.726;2023-03-24T01:04:56;95226.53;;;11.37;100.00
54038;BME280;39954;48.844;9.726;2023-03-24T01:06:00;95224.75;;;11.38;100.00
54038;BME280;39954;48.844;9.726;2023-03-24T01:07:06;95221.94;;;11.41;100.00
54038;BME280;39954;48.844;9.726;2023-03-24T01:08:09;95213.91;;;11.44;100.00
54038;BME280;39954;48.844;9.726;2023-03-24T01:09:14;95217.31;;;11.45;100.00
54038;BME280;39954;48.844;9.726;2023-03-24T01:10:18;95214.63;;;11.46;100.00
54038;BME280;39954;48.844;9.726;2023-03-24T01:11:27;95212.03;;;11.46;100.00
54038;BME280;39954;48.844;9.726;2023-03-24T01:12:32;95208.38;;;11.49;100.00
54038;BME280;39954;48.844;9.726;2023-03-24T01:13:38;95201.25;;;11.51;100.00
54038;BME280;39954;48.844;9.726;2023-03-24T01:14:40;95202.69;;;11.55;100.00
54038;BME280;39954;48.844;9.726;2023-03-24T01:15:45;95202.09;;;11.51;100.00
54038;BME280;39954;48.844;9.726;2023-03-24T01:16:47;95202.19;;;11.50;100.00
54038;BME280;39954;48.844;9.726;2023-03-24T01:17:54;95201.25;;;11.51;100.00
54038;BME280;39954;48.844;9.726;2023-03-24T01:18:56;95196.78;;;11.53;100.00
54038;BME280;39954;48.844;9.726;2023-03-24T01:20:05;95195.13;;;11.52;100.00
54038;BME280;39954;48.844;9.726;2023-03-24T01:21:10;95194.66;;;11.58;100.00
54038;BME280;39954;48.844;9.726;2023-03-24T01:22:15;95191.81;;;11.61;100.00
54038;BME280;39954;48.844;9.726;2023-03-24T01:23:19;95189.72;;;11.66;100.00
54038;BME280;39954;48.844;9.726;2023-03-24T01:24:24;95186.78;;;11.71;100.00
54038;BME280;39954;48.844;9.726;2023-03-24T01:25:26;95181.91;;;11.77;100.00
54038;BME280;39954;48.844;9.726;2023-03-24T01:26:31;95189.38;;;11.82;100.00
54038;BME280;39954;48.844;9.726;2023-03-24T01:27:33;95183.09;;;11.84;100.00
54038;BME280;39954;48.844;9.726;2023-03-24T01:28:38;95180.63;;;11.83;100.00
54038;BME280;39954;48.844;9.726;2023-03-24T01:29:42;95177.19;;;11.82;100.00
54038;BME280;39954;48.844;9.726;2023-03-24T01:30:47;95172.91;;;11.81;100.00
54038;BME280;39954;48.844;9.726;2023-03-24T01:31:50;95178.34;;;11.78;100.00
54038;BME280;39954;48.844;9.726;2023-03-24T01:32:55;95174.09;;;11.77;100.00
54038;BME280;39954;48.844;9.726;2023-03-24T01:33:58;95174.59;;;11.71;100.00
54038;BME280;39954;48.844;9.726;2023-03-24T01:35:06;95167.00;;;11.68;100.00
54038;BME280;39954;48.844;9.726;2023-03-24T01:36:09;95160.50;;;11.74;100.00
54038;BME280;39954;48.844;9.726;2023-03-24T01:37:14;95159.66;;;11.73;100.00
54038;BME280;39954;48.844;9.726;2023-03-24T01:38:16;95159.88;;;11.70;100.00
54038;BME280;39954;48.844;9.726;2023-03-24T01:39:21;95162.03;;;11.65;100.00
54038;BME280;39954;48.844;9.726;2023-03-24T01:40:25;95157.66;;;11.65;100.00
54038;BME280;39954;48.844;9.726;2023-03-24T01:41:33;95158.34;;;11.68;100.00
54038;BME280;39954;48.844;9.726;2023-03-24T01:42:37;95151.63;;;11.65;100.00
54038;BME280;39954;48.844;9.726;2023-03-24T01:43:43;95150.78;;;11.64;100.00
54038;BME280;39954;48.844;9.726;2023-03-24T01:44:46;95147.47;;;11.62;100.00
54038;BME280;39954;48.844;9.726;2023-03-24T01:45:57;95140.13;;;11.68;100.00
54038;BME280;39954;48.844;9.726;2023-03-24T01:47:02;95147.72;;;11.71;100.00
54038;BME280;39954;48.844;9.726;2023-03-24T01:48:12;95146.28;;;11.67;100.00
54038;BME280;39954;48.844;9.726;2023-03-24T01:49:16;95145.94;;;11.71;100.00
54038;BME280;39954;48.844;9.726;2023-03-24T01:50:24;95143.34;;;11.71;100.00
54038;BME280;39954;48.844;9.726;2023-03-24T01:51:28;95137.91;;;11.74;100.00
54038;BME280;39954;48.844;9.726;2023-03-24T01:52:36;95130.69;;;11.78;100.00
54038;BME280;39954;48.844;9.726;2023-03-24T01:53:42;95136.03;;;11.76;100.00
54038;BME280;39954;48.844;9.726;2023-03-24T01:54:50;95136.47;;;11.81;100.00
54038;BME280;39954;48.844;9.726;2023-03-24T01:55:54;95133.19;;;11.79;100.00
54038;BME280;39954;48.844;9.726;2023-03-24T01:57:02;95131.75;;;11.75;100.00
54038;BME280;39954;48.844;9.726;2023-03-24T01:58:05;95126.78;;;11.72;100.00
54038;BME280;39954;48.844;9.726;2023-03-24T01:59:12;95126.78;;;11.72;100.00
54038;BME280;39954;48.844;9.726;2023-03-24T02:00:18;95124.91;;;11.74;100.00
54038;BME280;39954;48.844;9.726;2023-03-24T02:01:24;95129.72;;;11.79;100.00
54038;BME280;39954;48.844;9.726;2023-03-24T02:02:30;95129.38;;;11.83;100.00
54038;BME280;39954;48.844;9.726;2023-03-24T02:03:37;95127.75;;;11.82;100.00
54038;BME280;39954;48.844;9.726;2023-03-24T02:04:43;95122.31;;;11.85;100.00
54038;BME280;39954;48.844;9.726;2023-03-24T02:05:54;95128.94;;;11.90;100.00
54038;BME280;39954;48.844;9.726;2023-03-24T02:07:00;95123.72;;;11.90;100.00
54038;BME280;39954;48.844;9.726;2023-03-24T02:08:15;95116.16;;;11.86;100.00
54038;BME280;39954;48.844;9.726;2023-03-24T02:09:19;95114.50;;;11.85;100.00
54038;BME280;39954;48.844;9.726;2023-03-24T02:10:24;95118.16;;;11.83;100.00
54038;BME280;39954;48.844;9.726;2023-03-24T02:11:30;95125.66;;;11.88;100.00
54038;BME280;39954;48.844;9.726;2023-03-24T02:12:35;95120.44;;;11.88;100.00
54038;BME280;39954;48.844;9.726;2023-03-24T02:13:37;95122.91;;;11.89;100.00
54038;BME280;39954;48.844;9.726;2023-03-24T02:14:42;95123.25;;;11.96;100.00
54038;BME280;39954;48.844;9.726;2023-03-24T02:15:53;95109.31;;;11.97;100.00
54038;BME280;39954;48.844;9.726;2023-03-24T02:18:41;95120.63;;;12.07;100.00
54038;BME280;39954;48.844;9.726;2023-03-24T02:21:39;95114.25;;;12.11;100.00
54038;BME280;39954;48.844;9.726;2023-03-24T02:23:11;95112.97;;;12.05;100.00
54038;BME280;39954;48.844;9.726;2023-03-24T02:27:58;95113.53;;;12.09;100.00
54038;BME280;39954;48.844;9.726;2023-03-24T02:29:29;95113.91;;;12.16;100.00
54038;BME280;39954;48.844;9.726;2023-03-24T02:31:06;95114.72;;;12.16;100.00
54038;BME280;39954;48.844;9.726;2023-03-24T02:36:04;95118.38;;;12.25;98.25
54038;BME280;39954;48.844;9.726;2023-03-24T02:37:32;95108.31;;;12.31;96.69
54038;BME280;39954;48.844;9.726;2023-03-24T02:40:38;95110.41;;;12.38;96.02
54038;BME280;39954;48.844;9.726;2023-03-24T02:41:52;95101.66;;;12.39;94.95
54038;BME280;39954;48.844;9.726;2023-03-24T02:43:03;95105.09;;;12.39;94.86
54038;BME280;39954;48.844;9.726;2023-03-24T02:44:17;95107.81;;;12.38;95.92
54038;BME280;39954;48.844;9.726;2023-03-24T02:45:25;95114.94;;;12.36;95.57
54038;BME280;39954;48.844;9.726;2023-03-24T02:46:35;95108.75;;;12.48;92.64
54038;BME280;39954;48.844;9.726;2023-03-24T02:47:45;95104.34;;;12.48;92.44
54038;BME280;39954;48.844;9.726;2023-03-24T02:49:06;95108.75;;;12.48;93.43
54038;BME280;39954;48.844;9.726;2023-03-24T02:50:17;95103.53;;;12.48;93.33
54038;BME280;39954;48.844;9.726;2023-03-24T02:51:34;95101.38;;;12.53;92.65
54038;BME280;39954;48.844;9.726;2023-03-24T02:52:44;95104.72;;;12.55;91.47
54038;BME280;39954;48.844;9.726;2023-03-24T02:53:56;95104.47;;;12.58;91.56
54038;BME280;39954;48.844;9.726;2023-03-24T02:55:03;95103.13;;;12.64;89.32
54038;BME280;39954;48.844;9.726;2023-03-24T02:56:17;95104.78;;;12.65;90.62
54038;BME280;39954;48.844;9.726;2023-03-24T02:57:28;95110.25;;;12.62;90.93
54038;BME280;39954;48.844;9.726;2023-03-24T02:58:37;95104.31;;;12.60;90.65
54038;BME280;39954;48.844;9.726;2023-03-24T02:59:43;95109.75;;;12.68;88.80
54038;BME280;39954;48.844;9.726;2023-03-24T03:00:54;95107.75;;;12.60;91.89
54038;BME280;39954;48.844;9.726;2023-03-24T03:02:02;95099.59;;;12.53;92.66
54038;BME280;39954;48.844;9.726;2023-03-24T03:03:11;95102.47;;;12.50;92.48
54038;BME280;39954;48.844;9.726;2023-03-24T03:04:17;95097.50;;;12.47;93.43
54038;BME280;39954;48.844;9.726;2023-03-24T03:05:28;95096.06;;;12.43;93.29
54038;BME280;39954;48.844;9.726;2023-03-24T03:06:36;95094.78;;;12.38;95.66
54038;BME280;39954;48.844;9.726;2023-03-24T03:07:43;95092.19;;;12.38;93.97
54038;BME280;39954;48.844;9.726;2023-03-24T03:08:46;95091.72;;;12.44;91.48
54038;BME280;39954;48.844;9.726;2023-03-24T03:09:57;95100.19;;;12.57;89.69
54038;BME280;39954;48.844;9.726;2023-03-24T03:11:02;95095.34;;;12.52;90.57
54038;BME280;39954;48.844;9.726;2023-03-24T03:12:11;95098.22;;;12.49;91.91
54038;BME280;39954;48.844;9.726;2023-03-24T03:13:17;95087.66;;;12.51;90.37
54038;BME280;39954;48.844;9.726;2023-03-24T03:14:30;95087.41;;;12.54;90.51
54038;BME280;39954;48.844;9.726;2023-03-24T03:15:35;95091.69;;;12.55;89.05
54038;BME280;39954;48.844;9.726;2023-03-24T03:16:45;95086.06;;;12.60;88.62
54038;BME280;39954;48.844;9.726;2023-03-24T03:17:52;95083.38;;;12.61;88.56
54038;BME280;39954;48.844;9.726;2023-03-24T03:19:03;95074.97;;;12.58;89.37
54038;BME280;39954;48.844;9.726;2023-03-24T03:20:09;95084.19;;;12.62;88.12
54038;BME280;39954;48.844;9.726;2023-03-24T03:21:19;95085.97;;;12.61;88.73
54038;BME280;39954;48.844;9.726;2023-03-24T03:22:26;95089.50;;;12.60;89.02
54038;BME280;39954;48.844;9.726;2023-03-24T03:23:36;95083.09;;;12.64;86.93
54038;BME280;39954;48.844;9.726;2023-03-24T03:24:41;95078.59;;;12.66;86.97
54038;BME280;39954;48.844;9.726;2023-03-24T03:25:55;95083.09;;;12.64;88.16
54038;BME280;39954;48.844;9.726;2023-03-24T03:27:08;95081.22;;;12.66;87.37
54038;BME280;39954;48.844;9.726;2023-03-24T03:28:21;95076.38;;;12.62;88.16
54038;BME280;39954;48.844;9.726;2023-03-24T03:29:25;95074.00;;;12.59;88.29
54038;BME280;39954;48.844;9.726;2023-03-24T03:30:36;95067.84;;;12.60;87.20
54038;BME280;39954;48.844;9.726;2023-03-24T03:31:43;95073.19;;;12.58;89.00
54038;BME280;39954;48.844;9.726;2023-03-24T03:32:52;95066.75;;;12.62;87.85
54038;BME280;39954;48.844;9.726;2023-03-24T03:34:02;95074.06;;;12.68;85.85
54038;BME280;39954;48.844;9.726;2023-03-24T03:35:15;95067.59;;;12.63;88.89
54038;BME280;39954;48.844;9.726;2023-03-24T03:36:22;95073.88;;;12.60;88.10
54038;BME280;39954;48.844;9.726;2023-03-24T03:37:35;95076.72;;;12.57;88.15
54038;BME280;39954;48.844;9.726;2023-03-24T03:38:44;95066.56;;;12.54;88.56
54038;BME280;39954;48.844;9.726;2023-03-24T03:39:54;95069.63;;;12.59;87.75
54038;BME280;39954;48.844;9.726;2023-03-24T03:40:59;95068.09;;;12.57;88.32
54038;BME280;39954;48.844;9.726;2023-03-24T03:42:05;95064.19;;;12.51;88.54
54038;BME280;39954;48.844;9.726;2023-03-24T03:43:08;95060.78;;;12.50;88.49
54038;BME280;39954;48.844;9.726;2023-03-24T03:44:15;95071.31;;;12.49;89.40
54038;BME280;39954;48.844;9.726;2023-03-24T03:45:17;95069.41;;;12.51;88.69
54038;BME280;39954;48.844;9.726;2023-03-24T03:46:22;95065.66;;;12.44;90.56
54038;BME280;39954;48.844;9.726;2023-03-24T03:47:25;95072.75;;;12.42;90.15
54038;BME280;39954;48.844;9.726;2023-03-24T03:48:30;95073.69;;;12.52;88.98
54038;BME280;39954;48.844;9.726;2023-03-24T03:49:32;95074.88;;;12.48;89.33
54038;BME280;39954;48.844;9.726;2023-03-24T03:50:37;95072.25;;;12.48;88.15
54038;BME280;39954;48.844;9.726;2023-03-24T03:51:39;95076.06;;;12.44;89.15
54038;BME280;39954;48.844;9.726;2023-03-24T03:52:44;95069.09;;;12.44;88.53
54038;BME280;39954;48.844;9.726;2023-03-24T03:53:49;95073.94;;;12.38;91.05
54038;BME280;39954;48.844;9.726;2023-03-24T03:54:55;95074.19;;;12.35;90.73
54038;BME280;39954;48.844;9.726;2023-03-24T03:55:59;95066.50;;;12.33;90.22
54038;BME280;39954;48.844;9.726;2023-03-24T03:57:05;95072.06;;;12.28;91.29
54038;BME280;39954;48.844;9.726;2023-03-24T03:58:07;95067.69;;;12.29;91.50
54038;BME280;39954;48.844;9.726;2023-03-24T03:59:27;95075.88;;;12.24;92.25
54038;BME280;39954;48.844;9.726;2023-03-24T04:00:30;95070.22;;;12.19;92.74
54038;BME280;39954;48.844;9.726;2023-03-24T04:07:26;95069.22;;;12.31;90.46
54038;BME280;39954;48.844;9.726;2023-03-24T04:08:45;95053.97;;;12.27;90.82
54038;BME280;39954;48.844;9.726;2023-03-24T04:09:56;95062.03;;;12.24;91.26
54038;BME280;39954;48.844;9.726;2023-03-24T04:11:24;95066.28;;;12.25;90.99
54038;BME280;39954;48.844;9.726;2023-03-24T04:12:55;95061.91;;;12.25;90.43
54038;BME280;39954;48.844;9.726;2023-03-24T04:14:14;95062.59;;;12.39;89.04
54038;BME280;39954;48.844;9.726;2023-03-24T04:15:34;95062.59;;;12.39;89.45
54038;BME280;39954;48.844;9.726;2023-03-24T04:16:46;95066.13;;;12.38;90.16
54038;BME280;39954;48.844;9.726;2023-03-24T04:19:38;95064.72;;;12.34;90.75
54038;BME280;39954;48.844;9.726;2023-03-24T04:20:47;95068.63;;;12.39;89.07
54038;BME280;39954;48.844;9.726;2023-03-24T04:22:03;95066.13;;;12.38;89.72
54038;BME280;39954;48.844;9.726;2023-03-24T04:23:15;95063.66;;;12.36;90.66
54038;BME280;39954;48.844;9.726;2023-03-24T04:24:37;95061.31;;;12.33;91.52
54038;BME280;39954;48.844;9.726;2023-03-24T04:25:48;95064.25;;;12.28;91.16
54038;BME280;39954;48.844;9.726;2023-03-24T04:27:04;95061.16;;;12.35;89.32
54038;BME280;39954;48.844;9.726;2023-03-24T04:28:18;95061.66;;;12.28;91.94
54038;BME280;39954;48.844;9.726;2023-03-24T04:29:28;95063.69;;;12.25;93.50
54038;BME280;39954;48.844;9.726;2023-03-24T04:30:42;95065.47;;;12.24;92.10
54038;BME280;39954;48.844;9.726;2023-03-24T04:31:49;95061.91;;;12.25;92.25
54038;BME280;39954;48.844;9.726;2023-03-24T04:32:57;95058.13;;;12.29;91.68
54038;BME280;39954;48.844;9.726;2023-03-24T04:34:03;95064.72;;;12.34;90.90
54038;BME280;39954;48.844;9.726;2023-03-24T04:35:11;95065.31;;;12.37;89.61
54038;BME280;39954;48.844;9.726;2023-03-24T04:36:20;95068.28;;;12.32;90.98
54038;BME280;39954;48.844;9.726;2023-03-24T04:37:30;95067.34;;;12.34;90.88
54038;BME280;39954;48.844;9.726;2023-03-24T04:38:34;95066.63;;;12.31;90.73
54038;BME280;39954;48.844;9.726;2023-03-24T04:39:41;95067.44;;;12.32;91.18
54038;BME280;39954;48.844;9.726;2023-03-24T04:40:45;95062.13;;;12.34;90.61
54038;BME280;39954;48.844;9.726;2023-03-24T04:41:51;95071.34;;;12.38;89.01
54038;BME280;39954;48.844;9.726;2023-03-24T04:42:55;95065.31;;;12.37;89.87
54038;BME280;39954;48.844;9.726;2023-03-24T04:44:02;95068.28;;;12.32;90.74
54038;BME280;39954;48.844;9.726;2023-03-24T04:45:07;95067.34;;;12.34;90.91
54038;BME280;39954;48.844;9.726;2023-03-24T04:46:16;95062.69;;;12.37;90.07
54038;BME280;39954;48.844;9.726;2023-03-24T04:47:20;95059.53;;;12.34;90.58
54038;BME280;39954;48.844;9.726;2023-03-24T04:48:26;95064.16;;;12.30;91.64
54038;BME280;39954;48.844;9.726;2023-03-24T04:49:28;95056.59;;;12.27;92.54
54038;BME280;39954;48.844;9.726;2023-03-24T04:50:36;95058.34;;;12.26;92.08
54038;BME280;39954;48.844;9.726;2023-03-24T04:51:39;95060.25;;;12.24;92.17
54038;BME280;39954;48.844;9.726;2023-03-24T04:52:44;95051.63;;;12.24;93.27
54038;BME280;39954;48.844;9.726;2023-03-24T04:53:46;95055.97;;;12.23;92.71
54038;BME280;39954;48.844;9.726;2023-03-24T04:54:51;95051.72;;;12.22;92.75
54038;BME280;39954;48.844;9.726;2023-03-24T04:56:01;95047.84;;;12.17;94.68
54038;BME280;39954;48.844;9.726;2023-03-24T04:57:08;95043.69;;;12.14;94.75
54038;BME280;39954;48.844;9.726;2023-03-24T04:58:10;95043.34;;;12.19;93.70
54038;BME280;39954;48.844;9.726;2023-03-24T04:59:15;95047.47;;;12.21;92.30
54038;BME280;39954;48.844;9.726;2023-03-24T05:00:18;95044.88;;;12.21;92.77
54038;BME280;39954;48.844;9.726;2023-03-24T05:01:26;95049.94;;;12.23;92.23
54038;BME280;39954;48.844;9.726;2023-03-24T05:02:31;95049.59;;;12.27;90.70
54038;BME280;39954;48.844;9.726;2023-03-24T05:03:35;95044.13;;;12.30;90.74
54038;BME280;39954;48.844;9.726;2023-03-24T05:04:38;95048.28;;;12.33;90.42
54038;BME280;39954;48.844;9.726;2023-03-24T05:05:45;95052.66;;;12.32;90.53
54038;BME280;39954;48.844;9.726;2023-03-24T05:06:49;95058.09;;;12.41;89.04
54038;BME280;39954;48.844;9.726;2023-03-24T05:07:54;95055.22;;;12.44;88.91
54038;BME280;39954;48.844;9.726;2023-03-24T05:08:58;95060.44;;;12.44;88.91
54038;BME280;39954;48.844;9.726;2023-03-24T05:10:06;95062.19;;;12.43;89.98
54038;BME280;39954;48.844;9.726;2023-03-24T05:11:09;95060.91;;;12.38;90.76
54038;BME280;39954;48.844;9.726;2023-03-24T05:12:14;95061.16;;;12.35;91.39
54038;BME280;39954;48.844;9.726;2023-03-24T05:13:16;95071.47;;;12.36;90.65
54038;BME280;39954;48.844;9.726;2023-03-24T05:14:21;95073.25;;;12.36;90.04
54038;BME280;39954;48.844;9.726;2023-03-24T05:15:23;95073.84;;;12.39;91.05
54038;BME280;39954;48.844;9.726;2023-03-24T05:16:30;95071.22;;;12.39;92.10
54038;BME280;39954;48.844;9.726;2023-03-24T05:17:32;95076.91;;;12.44;89.92
54038;BME280;39954;48.844;9.726;2023-03-24T05:18:37;95077.31;;;12.61;88.01
54038;BME280;39954;48.844;9.726;2023-03-24T05:19:39;95081.69;;;12.60;89.60
54038;BME280;39954;48.844;9.726;2023-03-24T05:20:44;95078.66;;;12.55;89.99
54038;BME280;39954;48.844;9.726;2023-03-24T05:21:46;95080.44;;;12.43;94.75
54038;BME280;39954;48.844;9.726;2023-03-24T05:22:52;95081.66;;;12.39;93.20
54038;BME280;39954;48.844;9.726;2023-03-24T05:23:54;95076.53;;;12.38;92.27
54038;BME280;39954;48.844;9.726;2023-03-24T05:24:59;95086.75;;;12.41;90.79
54038;BME280;39954;48.844;9.726;2023-03-24T05:26:02;95085.31;;;12.37;92.29
54038;BME280;39954;48.844;9.726;2023-03-24T05:27:07;95078.47;;;12.36;92.17
54038;BME280;39954;48.844;9.726;2023-03-24T05:28:09;95096.19;;;12.53;88.69
54038;BME280;39954;48.844;9.726;2023-03-24T05:29:14;95099.94;;;12.60;87.16
54038;BME280;39954;48.844;9.726;2023-03-24T05:30:19;95093.28;;;12.67;86.05
54038;BME280;39954;48.844;9.726;2023-03-24T05:31:21;95103.91;;;12.75;85.00
54038;BME280;39954;48.844;9.726;2023-03-24T05:32:29;95092.28;;;12.80;84.66
54038;BME280;39954;48.844;9.726;2023-03-24T05:33:31;95096.06;;;12.87;83.64
54038;BME280;39954;48.844;9.726;2023-03-24T05:34:36;95095.09;;;12.88;84.49
54038;BME280;39954;48.844;9.726;2023-03-24T05:35:38;95094.53;;;12.84;84.87
54038;BME280;39954;48.844;9.726;2023-03-24T05:36:43;95092.69;;;12.96;83.01
54038;BME280;39954;48.844;9.726;2023-03-24T05:37:46;95096.66;;;13.11;82.23
54038;BME280;39954;48.844;9.726;2023-03-24T05:38:51;95100.19;;;13.10;82.24
54038;BME280;39954;48.844;9.726;2023-03-24T05:39:56;95102.81;;;13.10;83.01
54038;BME280;39954;48.844;9.726;2023-03-24T05:40:59;95110.44;;;13.02;83.93
54038;BME280;39954;48.844;9.726;2023-03-24T05:42:04;95111.28;;;13.03;84.67
54038;BME280;39954;48.844;9.726;2023-03-24T05:43:06;95118.59;;;13.09;83.03
54038;BME280;39954;48.844;9.726;2023-03-24T05:44:13;95107.78;;;13.13;83.06
54038;BME280;39954;48.844;9.726;2023-03-24T05:45:16;95115.47;;;13.15;83.50
54038;BME280;39954;48.844;9.726;2023-03-24T05:46:21;95127.19;;;13.20;82.69
54038;BME280;39954;48.844;9.726;2023-03-24T05:47:29;95113.78;;;13.25;82.80
54038;BME280;39954;48.844;9.726;2023-03-24T05:48:34;95129.31;;;13.27;83.10
54038;BME280;39954;48.844;9.726;2023-03-24T05:49:39;95120.34;;;13.19;85.29
54038;BME280;39954;48.844;9.726;2023-03-24T05:50:41;95135.03;;;13.20;86.31
54038;BME280;39954;48.844;9.726;2023-03-24T05:51:46;95139.78;;;13.15;89.47
54038;BME280;39954;48.844;9.726;2023-03-24T05:52:48;95147.03;;;13.12;92.87
54038;BME280;39954;48.844;9.726;2023-03-24T05:53:53;95152.41;;;12.99;100.00
54038;BME280;39954;48.844;9.726;2023-03-24T05:54:55;95158.91;;;12.72;100.00
54038;BME280;39954;48.844;9.726;2023-03-24T05:56:00;95162.75;;;12.46;100.00
54038;BME280;39954;48.844;9.726;2023-03-24T05:57:03;95171.31;;;12.25;100.00
54038;BME280;39954;48.844;9.726;2023-03-24T05:58:08;95178.41;;;12.01;100.00
54038;BME280;39954;48.844;9.726;2023-03-24T05:59:11;95176.47;;;11.80;100.00
54038;BME280;39954;48.844;9.726;2023-03-24T06:00:17;95175.84;;;11.54;100.00
54038;BME280;39954;48.844;9.726;2023-03-24T06:01:20;95201.56;;;11.35;100.00
54038;BME280;39954;48.844;9.726;2023-03-24T06:02:28;95192.06;;;11.23;100.00
54038;BME280;39954;48.844;9.726;2023-03-24T06:03:31;95189.88;;;11.05;100.00
54038;BME280;39954;48.844;9.726;2023-03-24T06:04:39;95189.94;;;10.92;100.00
54038;BME280;39954;48.844;9.726;2023-03-24T06:05:47;95190.59;;;10.83;100.00
54038;BME280;39954;48.844;9.726;2023-03-24T06:06:53;95202.69;;;10.71;100.00
54038;BME280;39954;48.844;9.726;2023-03-24T06:07:57;95209.16;;;10.66;100.00
54038;BME280;39954;48.844;9.726;2023-03-24T06:09:02;95208.66;;;10.61;100.00
54038;BME280;39954;48.844;9.726;2023-03-24T06:10:06;95211.47;;;10.58;100.00
54038;BME280;39954;48.844;9.726;2023-03-24T06:11:12;95208.38;;;10.52;100.00
54038;BME280;39954;48.844;9.726;2023-03-24T06:12:14;95212.56;;;10.42;100.00